createdAt,value
2022-10-30T00:02:06.813Z,101389.01
2022-10-30T00:07:12.378Z,101389.33
2022-10-30T00:12:17.997Z,101388.08
2022-10-30T00:17:23.533Z,101387.98
2022-10-30T00:22:29.130Z,101385.28
2022-10-30T00:27:34.703Z,101375.56
2022-10-30T00:32:40.191Z,101371.75
2022-10-30T00:37:45.593Z,101381.82
2022-10-30T00:42:51.134Z,101383.86
2022-10-30T00:48:03.026Z,101383.00
2022-10-30T00:53:14.497Z,101376.70
2022-10-30T00:58:22.954Z,101365.95
2022-10-30T01:03:30.684Z,101362.00
2022-10-30T01:08:38.651Z,101358.27
2022-10-30T01:13:48.050Z,101364.86
2022-10-30T01:19:16.319Z,101353.80
2022-10-30T01:24:30.654Z,101349.20
2022-10-30T01:29:39.170Z,101344.50
2022-10-30T01:34:47.789Z,101345.19
2022-10-30T01:39:53.891Z,101343.80
2022-10-30T01:44:59.576Z,101342.45
2022-10-30T01:50:14.908Z,101336.85
2022-10-30T01:56:00.152Z,101347.98
2022-10-30T02:01:06.928Z,101347.25
2022-10-30T02:06:13.079Z,101350.25
2022-10-30T02:11:19.895Z,101368.36
2022-10-30T02:16:25.696Z,101360.75
2022-10-30T02:21:31.715Z,101351.59
2022-10-30T02:26:38.321Z,101335.53
2022-10-30T02:31:45.380Z,101334.87
2022-10-30T02:36:51.172Z,101334.00
2022-10-30T02:41:56.894Z,101327.55
2022-10-30T02:47:03.264Z,101323.78
2022-10-30T02:52:09.674Z,101324.27
2022-10-30T02:57:15.206Z,101309.44
2022-10-30T03:02:22.691Z,101312.90
2022-10-30T03:07:29.352Z,101318.02
2022-10-30T03:12:35.099Z,101333.62
2022-10-30T03:22:49.155Z,101343.64
2022-10-30T03:27:55.988Z,101338.35
2022-10-30T03:33:01.935Z,101337.82
2022-10-30T03:38:07.480Z,101350.59
2022-10-30T03:43:13.020Z,101351.56
2022-10-30T03:48:20.582Z,101343.78
2022-10-30T03:53:26.762Z,101341.08
2022-10-30T03:58:32.945Z,101335.70
2022-10-30T04:03:38.893Z,101333.38
2022-10-30T04:08:44.352Z,101329.83
2022-10-30T04:13:50.004Z,101320.02
2022-10-30T04:18:55.625Z,101308.37
2022-10-30T04:24:01.163Z,101305.58
2022-10-30T04:29:07.917Z,101300.95
2022-10-30T04:34:14.091Z,101297.29
2022-10-30T04:39:20.692Z,101304.23
2022-10-30T04:44:27.824Z,101313.76
2022-10-30T04:49:33.597Z,101303.95
2022-10-30T04:54:39.595Z,101301.36
2022-10-30T04:59:45.352Z,101293.75
2022-10-30T05:04:51.487Z,101308.47
2022-10-30T05:09:56.999Z,101319.34
2022-10-30T05:15:04.523Z,101320.84
2022-10-30T05:20:14.907Z,101320.47
2022-10-30T05:25:19.642Z,101324.50
2022-10-30T05:30:25.554Z,101322.39
2022-10-30T05:35:35.488Z,101314.80
2022-10-30T05:40:41.623Z,101318.25
2022-10-30T05:45:51.781Z,101316.42
2022-10-30T05:50:57.986Z,101316.52
2022-10-30T05:56:05.661Z,101316.42
2022-10-30T06:01:12.498Z,101326.23
2022-10-30T06:06:19.587Z,101325.08
2022-10-30T06:11:25.114Z,101322.20
2022-10-30T06:21:51.450Z,101308.36
2022-10-30T06:27:04.754Z,101309.98
2022-10-30T06:32:10.358Z,101308.06
2022-10-30T06:37:16.198Z,101310.85
2022-10-30T06:42:22.003Z,101304.41
2022-10-30T06:47:29.223Z,101303.16
2022-10-30T06:52:35.030Z,101301.73
2022-10-30T06:57:42.422Z,101302.59
2022-10-30T07:03:07.464Z,101314.49
2022-10-30T07:08:13.277Z,101318.00
2022-10-30T07:13:19.438Z,101320.67
2022-10-30T07:18:26.776Z,101320.94
2022-10-30T07:23:33.938Z,101316.69
2022-10-30T07:28:43.790Z,101315.90
2022-10-30T07:33:59.544Z,101316.28
2022-10-30T07:39:12.627Z,101324.83
2022-10-30T07:44:22.124Z,101325.41
2022-10-30T07:49:29.231Z,101322.17
2022-10-30T07:54:39.574Z,101317.06
2022-10-30T07:59:52.690Z,101312.94
2022-10-30T08:05:00.025Z,101297.72
2022-10-30T08:10:13.427Z,101291.79
2022-10-30T08:15:19.237Z,101300.66
2022-10-30T08:20:26.752Z,101291.55
2022-10-30T08:25:32.881Z,101290.73
2022-10-30T08:30:39.267Z,101273.86
2022-10-30T08:35:54.117Z,101266.98
2022-10-30T08:41:00.039Z,101260.51
2022-10-30T08:46:06.231Z,101255.91
2022-10-30T08:51:11.904Z,101250.22
2022-10-30T08:56:19.639Z,101247.86
2022-10-30T09:01:27.052Z,101248.33
2022-10-30T09:06:43.530Z,101242.71
2022-10-30T09:11:59.670Z,101237.51
2022-10-30T09:17:06.226Z,101246.27
2022-10-30T09:22:13.676Z,101243.31
2022-10-30T09:27:20.040Z,101250.08
2022-10-30T09:32:27.218Z,101258.21
2022-10-30T09:37:39.590Z,101263.19
2022-10-30T09:42:49.799Z,101266.25
2022-10-30T09:48:22.569Z,101276.17
2022-10-30T09:53:45.447Z,101286.44
2022-10-30T09:59:13.985Z,101288.63
2022-10-30T10:04:46.624Z,101286.83
2022-10-30T10:09:56.879Z,101283.84
2022-10-30T10:15:40.140Z,101281.98
2022-10-30T10:20:48.468Z,101273.95
2022-10-30T10:25:59.784Z,101283.69
2022-10-30T10:31:10.957Z,101277.77
2022-10-30T10:36:31.488Z,101275.19
2022-10-30T10:41:53.503Z,101268.20
2022-10-30T10:47:18.795Z,101277.03
2022-10-30T10:52:32.949Z,101263.54
2022-10-30T10:57:42.092Z,101255.07
2022-10-30T11:03:05.448Z,101251.91
2022-10-30T11:08:26.076Z,101250.55
2022-10-30T11:13:34.545Z,101244.02
2022-10-30T11:18:41.451Z,101232.91
2022-10-30T11:23:49.320Z,101240.55
2022-10-30T11:29:06.685Z,101238.56
2022-10-30T11:34:21.851Z,101239.52
2022-10-30T11:39:35.718Z,101231.02
2022-10-30T11:44:43.761Z,101229.23
2022-10-30T11:50:01.196Z,101229.70
2022-10-30T11:55:30.618Z,101222.77
2022-10-30T12:00:41.045Z,101218.47
2022-10-30T12:05:50.269Z,101209.83
2022-10-30T12:11:00.187Z,101203.28
2022-10-30T12:16:11.482Z,101189.20
2022-10-30T12:21:20.349Z,101190.73
2022-10-30T12:26:27.062Z,101191.73
2022-10-30T12:31:44.449Z,101199.81
2022-10-30T12:36:58.742Z,101203.88
2022-10-30T12:42:16.559Z,101200.80
2022-10-30T12:47:41.776Z,101200.80
2022-10-30T12:53:02.404Z,101199.51
2022-10-30T12:58:29.008Z,101204.61
2022-10-30T13:04:03.225Z,101197.35
2022-10-30T13:09:17.721Z,101190.26
2022-10-30T13:14:28.431Z,101193.08
2022-10-30T13:19:34.588Z,101195.12
2022-10-30T13:24:45.864Z,101198.29
2022-10-30T13:30:17.111Z,101201.91
2022-10-30T13:35:41.465Z,101195.97
2022-10-30T13:40:59.021Z,101195.03
2022-10-30T13:46:19.782Z,101191.09
2022-10-30T13:51:40.736Z,101201.95
2022-10-30T13:56:49.055Z,101199.96
2022-10-30T14:02:06.931Z,101197.02
2022-10-30T14:07:24.402Z,101202.81
2022-10-30T14:12:53.577Z,101203.31
2022-10-30T14:18:17.343Z,101191.00
2022-10-30T14:23:25.874Z,101194.56
2022-10-30T14:28:45.967Z,101197.16
2022-10-30T14:33:53.396Z,101205.34
2022-10-30T14:39:13.880Z,101204.83
2022-10-30T14:44:22.329Z,101198.44
2022-10-30T14:49:51.526Z,101203.09
2022-10-30T14:55:28.764Z,101198.22
2022-10-30T15:00:40.209Z,101200.50
2022-10-30T15:05:51.518Z,101208.14
2022-10-30T15:11:17.569Z,101215.61
2022-10-30T15:16:22.250Z,101220.22
2022-10-30T15:21:29.870Z,101217.68
2022-10-30T15:26:40.574Z,101215.66
2022-10-30T15:31:46.188Z,101224.44
2022-10-30T15:36:51.663Z,101226.73
2022-10-30T15:42:00.502Z,101231.45
2022-10-30T15:47:08.675Z,101233.22
2022-10-30T15:52:18.135Z,101225.96
2022-10-30T15:58:03.917Z,101234.57
2022-10-30T16:02:40.913Z,101233.84
2022-10-30T16:07:48.285Z,101229.44
2022-10-30T16:12:57.442Z,101235.44
2022-10-30T16:18:17.927Z,101227.08
2022-10-30T16:23:24.842Z,101224.84
2022-10-30T16:28:38.389Z,101230.36
2022-10-30T16:33:47.693Z,101223.78
2022-10-30T16:38:53.628Z,101228.05
2022-10-30T16:44:17.584Z,101226.42
2022-10-30T16:49:28.727Z,101223.95
2022-10-30T16:54:39.595Z,101227.70
2022-10-30T16:59:52.040Z,101229.52
2022-10-30T17:05:03.459Z,101231.58
2022-10-30T17:10:28.329Z,101232.44
2022-10-30T17:15:34.146Z,101239.41
2022-10-30T17:20:39.986Z,101238.14
2022-10-30T17:25:45.631Z,101240.20
2022-10-30T17:30:51.477Z,101245.11
2022-10-30T17:35:57.324Z,101243.82
2022-10-30T17:41:03.694Z,101257.27
2022-10-30T17:46:09.835Z,101256.02
2022-10-30T17:51:16.403Z,101262.77
2022-10-30T17:56:48.564Z,101258.13
2022-10-30T18:01:54.133Z,101265.14
2022-10-30T18:06:59.703Z,101264.17
2022-10-30T18:12:06.952Z,101266.52
2022-10-30T18:17:12.493Z,101266.73
2022-10-30T18:22:17.949Z,101263.39
2022-10-30T18:27:23.343Z,101264.36
2022-10-30T18:32:28.894Z,101261.17
2022-10-30T18:37:34.359Z,101262.64
2022-10-30T18:42:40.035Z,101261.77
2022-10-30T18:47:45.964Z,101266.18
2022-10-30T18:52:51.965Z,101271.47
2022-10-30T18:57:57.755Z,101270.71
2022-10-30T19:03:04.669Z,101270.34
2022-10-30T19:08:11.951Z,101275.33
2022-10-30T19:13:22.622Z,101272.25
2022-10-30T19:18:31.319Z,101263.62
2022-10-30T19:23:36.931Z,101264.97
2022-10-30T19:28:43.028Z,101258.06
2022-10-30T19:33:53.029Z,101260.98
2022-10-30T19:39:05.734Z,101259.47
2022-10-30T19:44:08.680Z,101264.10
2022-10-30T19:49:17.266Z,101255.73
2022-10-30T19:54:22.731Z,101257.95
2022-10-30T19:59:28.277Z,101263.64
2022-10-30T20:04:33.761Z,101259.59
2022-10-30T20:09:39.245Z,101262.23
2022-10-30T20:14:44.784Z,101262.50
2022-10-30T20:19:50.598Z,101256.73
2022-10-30T20:24:56.090Z,101261.32
2022-10-30T20:30:04.208Z,101258.03
2022-10-30T20:35:11.322Z,101260.94
2022-10-30T20:40:18.295Z,101262.50
2022-10-30T20:45:26.950Z,101254.63
2022-10-30T20:50:32.488Z,101259.36
2022-10-30T20:55:38.154Z,101260.20
2022-10-30T21:00:43.993Z,101261.78
2022-10-30T21:05:52.457Z,101261.44
2022-10-30T21:11:03.211Z,101267.84
2022-10-30T21:16:10.351Z,101275.48
2022-10-30T21:21:20.307Z,101275.06
2022-10-30T21:26:24.980Z,101277.30
2022-10-30T21:31:30.580Z,101277.47
2022-10-30T21:36:36.137Z,101278.81
2022-10-30T21:41:41.589Z,101278.05
2022-10-30T21:46:47.130Z,101288.55
2022-10-30T21:51:52.546Z,101283.36
2022-10-30T21:56:58.862Z,101281.63
2022-10-30T22:02:04.382Z,101282.93
2022-10-30T22:07:09.999Z,101287.47
2022-10-30T22:12:15.493Z,101280.74
2022-10-30T22:17:21.362Z,101272.38
2022-10-30T22:22:26.900Z,101268.54
2022-10-30T22:27:55.296Z,101275.17
2022-10-30T22:33:01.215Z,101277.63
2022-10-30T22:38:06.974Z,101273.41
2022-10-30T22:43:12.507Z,101265.81
2022-10-30T22:48:17.954Z,101262.46
2022-10-30T22:53:23.424Z,101264.19
2022-10-30T22:58:30.844Z,101266.68
2022-10-30T23:03:36.470Z,101274.76
2022-10-30T23:08:42.440Z,101271.78
2022-10-30T23:13:49.263Z,101287.17
2022-10-30T23:19:00.507Z,101288.14
2022-10-30T23:24:06.929Z,101293.14
2022-10-30T23:29:13.262Z,101299.48
2022-10-30T23:34:19.014Z,101306.70
2022-10-30T23:39:24.617Z,101312.95
2022-10-30T23:44:30.081Z,101323.84
2022-10-30T23:49:35.994Z,101328.95
2022-10-30T23:54:41.532Z,101328.66
2022-10-30T23:59:47.904Z,101325.58
